TimeCST,TemperatureF,Dew PointF,Humidity,Sea Level PressureIn,VisibilityMPH,Wind Direction,Wind SpeedMPH,Gust SpeedMPH,PrecipitationIn,Events,Conditions,WindDirDegrees,DateUTC
12:53 AM,23.0,15.1,72,30.27,10.0,North,5.8,-,N/A,,Clear,360,2013-01-02 06:53:00
1:53 AM,21.0,14.0,74,30.28,10.0,NNW,4.6,-,N/A,,Clear,330,2013-01-02 07:53:00
2:53 AM,19.9,15.1,81,30.29,10.0,Calm,Calm,-,N/A,,Clear,0,2013-01-02 08:53:00
3:53 AM,19.0,14.0,81,30.28,9.0,NNW,4.6,-,N/A,,Clear,340,2013-01-02 09:53:00
4:53 AM,19.0,14.0,81,30.28,9.0,NNW,3.5,-,N/A,,Clear,330,2013-01-02 10:53:00
5:53 AM,19.0,12.9,77,30.29,10.0,NNW,4.6,-,N/A,,Clear,340,2013-01-02 11:53:00
6:53 AM,18.0,12.9,81,30.30,9.0,Calm,Calm,-,N/A,,Clear,0,2013-01-02 12:53:00
7:53 AM,19.0,12.9,77,30.32,8.0,Calm,Calm,-,N/A,,Clear,0,2013-01-02 13:53:00
8:53 AM,21.2,12.2,68,30.31,10.0,North,4.6,-,N/A,,Clear,10,2013-01-02 14:53:00
9:53 AM,25.0,14.0,63,30.32,9.0,ENE,3.5,-,N/A,,Clear,60,2013-01-02 15:53:00
10:53 AM,27.0,12.0,53,30.30,10.0,Calm,Calm,-,N/A,,Clear,0,2013-01-02 16:53:00
11:53 AM,27.0,12.9,56,30.29,10.0,Calm,Calm,-,N/A,,Clear,0,2013-01-02 17:53:00
12:53 PM,28.0,12.0,51,30.26,10.0,Calm,Calm,-,N/A,,Clear,0,2013-01-02 18:53:00
1:53 PM,28.9,10.9,47,30.24,10.0,Calm,Calm,-,N/A,,Clear,0,2013-01-02 19:53:00
2:53 PM,30.0,15.1,54,30.24,10.0,Calm,Calm,-,N/A,,Clear,0,2013-01-02 20:53:00
3:53 PM,28.9,19.0,67,30.26,10.0,Calm,Calm,-,N/A,,Clear,0,2013-01-02 21:53:00
4:53 PM,28.0,19.0,69,30.26,10.0,Calm,Calm,-,N/A,,Clear,0,2013-01-02 22:53:00
5:53 PM,27.0,19.9,75,30.26,10.0,South,3.5,-,N/A,,Clear,180,2013-01-02 23:53:00
6:53 PM,26.1,18.0,71,30.27,10.0,Calm,Calm,-,N/A,,Clear,0,2013-01-03 00:53:00
7:53 PM,25.0,19.9,81,30.28,9.0,Calm,Calm,-,N/A,,Clear,0,2013-01-03 01:53:00
8:53 PM,26.1,18.0,71,30.28,10.0,Calm,Calm,-,N/A,,Clear,0,2013-01-03 02:53:00
9:53 PM,24.1,19.9,84,30.29,8.0,Calm,Calm,-,N/A,,Clear,0,2013-01-03 03:53:00
10:53 PM,23.0,19.0,85,30.29,8.0,Calm,Calm,-,N/A,,Clear,0,2013-01-03 04:53:00
11:53 PM,21.9,18.0,85,30.29,10.0,Calm,Calm,-,N/A,,Clear,0,2013-01-03 05:53:00